createdAt,value
2022-10-13T00:01:14.504Z,1.33
2022-10-13T00:03:42.835Z,2.63
2022-10-13T00:06:11.677Z,1.63
2022-10-13T00:08:41.082Z,1.83
2022-10-13T00:11:22.110Z,2.37
2022-10-13T00:13:50.988Z,1.63
2022-10-13T00:16:21.457Z,2.63
2022-10-13T00:18:49.506Z,1.47
2022-10-13T00:21:21.278Z,1.27
2022-10-13T00:23:50.319Z,1.53
2022-10-13T00:26:18.884Z,3.40
2022-10-13T00:28:51.222Z,4.43
2022-10-13T00:31:23.157Z,1.70
2022-10-13T00:33:50.940Z,2.30
2022-10-13T00:36:18.142Z,4.23
2022-10-13T00:38:45.294Z,0.80
2022-10-13T00:41:12.837Z,3.27
2022-10-13T00:44:07.291Z,1.33
2022-10-13T00:46:37.236Z,1.47
2022-10-13T00:49:13.350Z,1.47
2022-10-13T00:51:46.838Z,3.87
2022-10-13T00:54:21.232Z,0.67
2022-10-13T00:56:50.983Z,2.20
2022-10-13T00:59:27.468Z,1.40
2022-10-13T01:01:57.660Z,1.37
2022-10-13T01:04:30.968Z,0.83
2022-10-13T01:06:59.064Z,1.10
2022-10-13T01:09:26.159Z,1.77
2022-10-13T01:12:21.244Z,2.13
2022-10-13T01:14:58.104Z,2.97
2022-10-13T01:17:54.395Z,4.27
2022-10-13T01:20:27.474Z,1.17
2022-10-13T01:23:58.983Z,1.97
2022-10-13T01:26:59.889Z,2.10
2022-10-13T01:30:12.981Z,2.23
2022-10-13T01:32:53.961Z,1.80
2022-10-13T01:35:39.889Z,2.00
2022-10-13T01:38:35.113Z,2.00
2022-10-13T01:41:39.259Z,2.23
2022-10-13T01:44:18.550Z,3.10
2022-10-13T01:46:48.717Z,2.63
2022-10-13T01:49:20.188Z,3.57
2022-10-13T01:51:49.800Z,2.77
2022-10-13T01:54:17.274Z,2.53
2022-10-13T01:56:56.532Z,3.03
2022-10-13T01:59:27.861Z,3.43
2022-10-13T02:02:29.508Z,2.30
2022-10-13T02:05:49.595Z,1.40
2022-10-13T02:08:28.460Z,2.60
2022-10-13T02:11:20.463Z,0.97
2022-10-13T02:13:59.543Z,1.53
2022-10-13T02:16:31.991Z,1.43
2022-10-13T02:18:59.693Z,1.60
2022-10-13T02:21:27.358Z,2.60
2022-10-13T02:23:54.464Z,1.83
2022-10-13T02:26:22.643Z,3.07
2022-10-13T02:28:49.802Z,2.57
2022-10-13T02:31:17.564Z,3.00
2022-10-13T02:33:44.642Z,2.63
2022-10-13T02:36:12.631Z,1.73
2022-10-13T02:38:40.113Z,2.03
2022-10-13T02:41:07.132Z,3.53
2022-10-13T02:43:37.296Z,1.83
2022-10-13T02:46:04.840Z,5.10
2022-10-13T02:48:32.624Z,2.77
2022-10-13T02:50:59.718Z,2.53
2022-10-13T02:53:27.063Z,2.07
2022-10-13T02:55:54.539Z,2.00
2022-10-13T02:58:21.696Z,1.73
2022-10-13T03:00:48.899Z,5.60
2022-10-13T03:03:15.958Z,2.47
2022-10-13T03:05:44.366Z,2.10
2022-10-13T03:08:11.883Z,1.83
2022-10-13T03:10:38.998Z,2.27
2022-10-13T03:13:06.227Z,2.17
2022-10-13T03:15:33.316Z,2.17
2022-10-13T03:18:00.378Z,1.93
2022-10-13T03:20:27.788Z,3.70
2022-10-13T03:22:54.875Z,1.27
2022-10-13T03:25:22.974Z,1.13
2022-10-13T03:27:50.219Z,2.40
2022-10-13T03:30:17.764Z,1.43
2022-10-13T03:32:45.206Z,11.77
2022-10-13T03:35:12.941Z,9.80
2022-10-13T03:37:40.137Z,4.93
2022-10-13T03:40:08.407Z,3.87
2022-10-13T03:42:39.999Z,1.57
2022-10-13T03:45:08.513Z,1.57
2022-10-13T03:47:36.858Z,1.77
2022-10-13T03:50:06.105Z,8.33
2022-10-13T03:52:34.878Z,2.57
2022-10-13T03:55:02.209Z,3.60
2022-10-13T03:57:29.727Z,1.57
2022-10-13T03:59:57.841Z,1.97
2022-10-13T04:02:25.303Z,3.33
2022-10-13T04:04:52.414Z,1.47
2022-10-13T04:07:19.537Z,1.73
2022-10-13T04:09:46.782Z,1.27
2022-10-13T04:12:17.174Z,1.17
2022-10-13T04:14:47.902Z,2.27
2022-10-13T04:17:15.356Z,1.87
2022-10-13T04:19:42.537Z,2.13
2022-10-13T04:22:10.179Z,4.93
2022-10-13T04:24:37.505Z,2.10
2022-10-13T04:27:04.860Z,1.50
2022-10-13T04:29:32.431Z,1.67
2022-10-13T04:32:00.272Z,1.40
2022-10-13T04:34:27.463Z,4.63
2022-10-13T04:36:55.025Z,1.67
2022-10-13T04:39:22.092Z,2.97
2022-10-13T04:41:50.928Z,4.30
2022-10-13T04:44:18.087Z,2.50
2022-10-13T04:46:45.205Z,1.83
2022-10-13T04:49:12.326Z,2.03
2022-10-13T04:51:39.894Z,2.17
2022-10-13T04:54:06.953Z,2.87
2022-10-13T04:56:34.175Z,1.33
2022-10-13T04:59:01.975Z,2.37
2022-10-13T05:01:29.130Z,1.87
2022-10-13T05:04:00.864Z,1.80
2022-10-13T05:06:32.792Z,6.10
2022-10-13T05:09:00.655Z,3.17
2022-10-13T05:11:29.604Z,2.37
2022-10-13T05:13:59.318Z,1.47
2022-10-13T05:16:28.134Z,1.60
2022-10-13T05:18:56.394Z,2.73
2022-10-13T05:21:28.330Z,3.00
2022-10-13T05:23:57.729Z,1.33
2022-10-13T05:26:29.144Z,3.27
2022-10-13T05:28:58.482Z,3.17
2022-10-13T05:31:28.116Z,1.53
2022-10-13T05:33:56.018Z,2.57
2022-10-13T05:36:33.717Z,2.40
2022-10-13T05:39:05.861Z,2.63
2022-10-13T05:41:34.654Z,2.73
2022-10-13T05:44:06.709Z,1.60
2022-10-13T05:46:34.341Z,2.10
2022-10-13T05:49:02.089Z,4.00
2022-10-13T05:51:44.847Z,5.30
2022-10-13T05:54:17.726Z,2.67
2022-10-13T05:57:03.153Z,3.67
2022-10-13T05:59:37.507Z,1.90
2022-10-13T06:02:09.604Z,1.90
2022-10-13T06:04:44.342Z,5.50
2022-10-13T06:07:12.725Z,1.30
2022-10-13T06:09:41.840Z,2.93
2022-10-13T06:12:10.522Z,2.07
2022-10-13T06:14:37.736Z,2.83
2022-10-13T06:17:05.038Z,2.13
2022-10-13T06:19:32.540Z,5.00
2022-10-13T06:22:03.419Z,2.37
2022-10-13T06:24:31.735Z,4.37
2022-10-13T06:26:58.909Z,2.23
2022-10-13T06:29:26.544Z,1.93
2022-10-13T06:31:54.016Z,2.37
2022-10-13T06:34:21.618Z,2.27
2022-10-13T06:36:48.741Z,1.90
2022-10-13T06:39:16.198Z,3.37
2022-10-13T06:41:43.882Z,1.73
2022-10-13T06:44:11.464Z,3.43
2022-10-13T06:46:38.569Z,3.93
2022-10-13T06:49:05.934Z,2.70
2022-10-13T06:51:33.381Z,3.23
2022-10-13T06:54:00.576Z,2.50
2022-10-13T06:56:29.851Z,1.57
2022-10-13T06:58:56.953Z,4.87
2022-10-13T07:01:24.037Z,3.30
2022-10-13T07:03:53.551Z,2.67
2022-10-13T07:06:21.310Z,2.23
2022-10-13T07:08:48.518Z,6.07
2022-10-13T07:11:16.749Z,8.40
2022-10-13T07:14:04.099Z,3.43
2022-10-13T07:16:31.891Z,4.33
2022-10-13T07:18:59.134Z,3.00
2022-10-13T07:21:26.571Z,5.73
2022-10-13T07:23:54.102Z,3.20
2022-10-13T07:26:21.415Z,2.27
2022-10-13T07:28:49.067Z,5.57
2022-10-13T07:31:19.761Z,2.87
2022-10-13T07:33:50.312Z,1.53
2022-10-13T07:36:18.400Z,2.23
2022-10-13T07:38:46.907Z,4.40
2022-10-13T07:41:14.673Z,2.07
2022-10-13T07:43:42.308Z,2.33
2022-10-13T07:46:12.237Z,5.67
2022-10-13T07:48:40.242Z,3.10
2022-10-13T07:51:13.092Z,2.83
2022-10-13T07:53:42.650Z,2.30
2022-10-13T07:56:13.298Z,3.13
2022-10-13T07:58:44.971Z,6.43
2022-10-13T08:01:13.268Z,5.73
2022-10-13T08:03:45.562Z,3.27
2022-10-13T08:06:17.594Z,4.17
2022-10-13T08:08:45.321Z,3.00
2022-10-13T08:11:16.652Z,3.73
2022-10-13T08:13:51.717Z,3.93
2022-10-13T08:16:19.805Z,4.03
2022-10-13T08:18:48.655Z,2.53
2022-10-13T08:21:56.822Z,4.83
2022-10-13T08:24:12.696Z,4.13
2022-10-13T08:26:40.742Z,3.00
2022-10-13T08:29:24.285Z,2.93
2022-10-13T08:31:53.917Z,4.03
2022-10-13T08:34:25.702Z,5.03
2022-10-13T08:36:56.387Z,3.33
2022-10-13T08:39:25.226Z,3.40
2022-10-13T08:41:54.372Z,3.23
2022-10-13T08:45:06.211Z,2.80
2022-10-13T08:47:45.437Z,4.30
2022-10-13T08:50:25.223Z,4.77
2022-10-13T08:53:02.848Z,3.33
2022-10-13T08:55:40.196Z,3.13
2022-10-13T08:58:18.883Z,2.60
2022-10-13T09:00:46.413Z,5.00
2022-10-13T09:03:29.792Z,3.10
2022-10-13T09:06:17.060Z,3.53
2022-10-13T09:09:05.327Z,4.33
2022-10-13T09:11:40.637Z,5.40
2022-10-13T09:14:12.677Z,3.53
2022-10-13T09:16:43.726Z,6.57
2022-10-13T09:19:34.346Z,4.43
2022-10-13T09:22:33.953Z,4.60
2022-10-13T09:25:06.937Z,4.97
2022-10-13T09:28:02.709Z,5.07
2022-10-13T09:30:38.378Z,4.67
2022-10-13T09:33:05.393Z,3.10
2022-10-13T09:35:35.129Z,5.37
2022-10-13T09:38:22.351Z,4.00
2022-10-13T09:41:10.199Z,7.97
2022-10-13T09:43:46.208Z,5.30
2022-10-13T09:46:28.297Z,4.50
2022-10-13T09:49:39.061Z,4.47
2022-10-13T09:52:21.571Z,3.47
2022-10-13T09:54:56.449Z,2.67
2022-10-13T09:57:36.130Z,4.03
2022-10-13T10:00:32.640Z,3.87
2022-10-13T10:03:27.560Z,4.17
2022-10-13T10:06:05.681Z,4.67
2022-10-13T10:09:09.680Z,5.13
2022-10-13T10:11:46.677Z,5.70
2022-10-13T10:14:33.946Z,5.33
2022-10-13T10:17:28.721Z,6.53
2022-10-13T10:20:20.494Z,3.73
2022-10-13T10:23:21.333Z,5.07
2022-10-13T10:26:06.754Z,4.57
2022-10-13T10:28:37.394Z,6.57
2022-10-13T10:31:41.748Z,5.60
2022-10-13T10:34:23.343Z,6.80
2022-10-13T10:37:14.408Z,6.73
2022-10-13T10:39:54.809Z,4.63
2022-10-13T10:42:52.112Z,3.13
2022-10-13T10:45:27.811Z,4.93
2022-10-13T10:48:02.658Z,3.90
2022-10-13T10:50:32.142Z,5.03
2022-10-13T10:53:29.861Z,8.63
2022-10-13T10:56:13.861Z,4.53
2022-10-13T10:59:08.263Z,4.47
2022-10-13T11:01:48.470Z,3.33
2022-10-13T11:04:41.541Z,5.60
2022-10-13T11:07:24.727Z,4.43
2022-10-13T11:09:51.899Z,5.13
2022-10-13T11:12:22.557Z,4.03
2022-10-13T11:15:22.388Z,4.07
2022-10-13T11:17:49.786Z,4.73
2022-10-13T11:20:22.398Z,4.20
2022-10-13T11:23:01.611Z,4.03
2022-10-13T11:25:48.897Z,3.23
2022-10-13T11:28:22.393Z,4.33
2022-10-13T11:31:17.218Z,3.97
2022-10-13T11:34:00.821Z,3.30
2022-10-13T11:36:35.079Z,4.03
2022-10-13T11:39:17.022Z,3.57
2022-10-13T11:41:56.154Z,3.53
2022-10-13T11:44:54.870Z,3.93
2022-10-13T11:48:11.990Z,3.33
2022-10-13T11:50:48.578Z,5.73
2022-10-13T11:53:20.975Z,3.93
2022-10-13T11:55:55.223Z,3.50
2022-10-13T11:58:28.591Z,4.37
2022-10-13T12:01:12.074Z,4.30
2022-10-13T12:03:43.645Z,5.50
2022-10-13T12:06:16.800Z,2.90
2022-10-13T12:08:52.220Z,3.47
2022-10-13T12:11:33.353Z,3.00
2022-10-13T12:14:01.732Z,6.10
2022-10-13T12:16:30.221Z,4.50
2022-10-13T12:19:21.413Z,3.13
2022-10-13T12:21:51.843Z,3.83
2022-10-13T12:24:23.635Z,5.77
2022-10-13T12:26:52.559Z,3.73
2022-10-13T12:29:27.299Z,8.33
2022-10-13T12:31:55.490Z,4.37
2022-10-13T12:34:35.249Z,3.73
2022-10-13T12:37:31.171Z,4.60
2022-10-13T12:40:00.452Z,4.10
2022-10-13T12:42:38.260Z,5.27
2022-10-13T12:45:06.320Z,4.43
2022-10-13T12:47:45.726Z,6.90
2022-10-13T12:50:27.757Z,5.80
2022-10-13T12:53:11.236Z,5.70
2022-10-13T12:55:58.910Z,7.00
2022-10-13T12:58:30.396Z,5.10
2022-10-13T13:01:14.894Z,5.00
2022-10-13T13:03:44.326Z,4.37
2022-10-13T13:06:15.441Z,6.40
2022-10-13T13:08:43.840Z,3.80
2022-10-13T13:11:35.357Z,4.60
2022-10-13T13:14:33.475Z,4.90
2022-10-13T13:17:38.817Z,3.67
2022-10-13T13:20:20.968Z,7.13
2022-10-13T13:22:48.433Z,6.93
2022-10-13T13:25:17.001Z,5.57
2022-10-13T13:27:44.334Z,3.63
2022-10-13T13:30:18.536Z,4.87
2022-10-13T13:32:46.469Z,5.93
2022-10-13T13:35:14.891Z,4.73
2022-10-13T13:37:50.542Z,5.83
2022-10-13T13:40:21.964Z,4.73
2022-10-13T13:42:49.208Z,6.20
2022-10-13T13:45:20.550Z,4.50
2022-10-13T13:47:48.233Z,4.10
2022-10-13T13:50:31.731Z,4.43
2022-10-13T13:53:00.439Z,5.43
2022-10-13T13:55:29.786Z,5.00
2022-10-13T13:57:58.362Z,5.23
2022-10-13T14:00:27.242Z,6.03
2022-10-13T14:02:55.433Z,4.63
2022-10-13T14:05:22.973Z,5.63
2022-10-13T14:07:52.796Z,5.97
2022-10-13T14:10:20.585Z,5.37
2022-10-13T14:12:47.854Z,9.27
2022-10-13T14:15:15.067Z,4.77
2022-10-13T14:17:42.504Z,5.00
2022-10-13T14:20:10.928Z,4.53
2022-10-13T14:22:39.499Z,4.30
2022-10-13T14:25:08.319Z,6.73
2022-10-13T14:27:37.139Z,4.80
2022-10-13T14:30:07.336Z,8.03
2022-10-13T14:32:37.167Z,4.07
2022-10-13T14:35:05.836Z,5.63
2022-10-13T14:37:34.004Z,4.27
2022-10-13T14:40:01.942Z,9.57
2022-10-13T14:42:29.123Z,6.57
2022-10-13T14:44:56.165Z,5.40
2022-10-13T14:47:23.745Z,5.80
2022-10-13T14:49:51.222Z,5.90
2022-10-13T14:52:18.385Z,5.90
2022-10-13T14:54:46.225Z,6.63
2022-10-13T14:57:16.128Z,5.33
2022-10-13T14:59:44.193Z,4.93
2022-10-13T15:02:13.120Z,6.97
2022-10-13T15:04:40.366Z,7.57
2022-10-13T15:07:08.117Z,6.60
2022-10-13T15:09:52.254Z,6.50
2022-10-13T15:12:23.189Z,6.87
2022-10-13T15:14:50.594Z,4.10
2022-10-13T15:17:17.925Z,6.00
2022-10-13T15:19:47.657Z,6.40
2022-10-13T15:22:14.951Z,5.83
2022-10-13T15:24:43.437Z,5.93
2022-10-13T15:27:10.626Z,5.73
2022-10-13T15:29:37.792Z,5.73
2022-10-13T15:32:18.474Z,5.30
2022-10-13T15:34:46.020Z,5.90
2022-10-13T15:37:13.598Z,6.97
2022-10-13T15:39:40.834Z,6.27
2022-10-13T15:42:08.311Z,6.43
2022-10-13T15:47:22.668Z,8.97
2022-10-13T15:49:49.919Z,7.10
2022-10-13T15:52:17.153Z,6.13
2022-10-13T15:54:44.451Z,8.37
2022-10-13T15:57:11.508Z,5.87
2022-10-13T15:59:38.807Z,11.70
2022-10-13T16:02:07.092Z,4.67
2022-10-13T16:04:37.811Z,9.23
2022-10-13T16:07:05.391Z,6.33
2022-10-13T16:09:32.569Z,9.30
2022-10-13T16:12:00.166Z,4.87
2022-10-13T16:14:27.312Z,4.63
2022-10-13T16:16:54.676Z,5.97
2022-10-13T16:19:21.963Z,7.17
2022-10-13T16:21:49.673Z,11.23
2022-10-13T16:24:16.739Z,9.07
2022-10-13T16:26:43.898Z,11.13
2022-10-13T16:29:10.933Z,8.27
2022-10-13T16:31:38.217Z,7.93
2022-10-13T16:34:06.187Z,9.27
2022-10-13T16:36:33.398Z,11.53
2022-10-13T16:39:02.944Z,14.87
2022-10-13T16:41:30.137Z,12.90
2022-10-13T16:43:57.740Z,10.70
2022-10-13T16:46:25.442Z,7.30
2022-10-13T16:48:52.973Z,9.77
2022-10-13T16:51:24.604Z,11.57
2022-10-13T16:53:58.652Z,8.37
2022-10-13T16:56:28.763Z,6.90
2022-10-13T16:59:05.271Z,14.17
2022-10-13T17:01:34.937Z,10.30
2022-10-13T17:04:04.329Z,6.63
2022-10-13T17:06:32.426Z,7.77
2022-10-13T17:09:03.002Z,7.47
2022-10-13T17:11:32.805Z,7.13
2022-10-13T17:14:01.471Z,8.90
2022-10-13T17:16:30.258Z,5.23
2022-10-13T17:18:58.072Z,7.17
2022-10-13T17:21:25.831Z,5.83
2022-10-13T17:23:56.161Z,9.00
2022-10-13T17:26:25.944Z,6.80
2022-10-13T17:28:54.368Z,14.17
2022-10-13T17:31:23.971Z,7.47
2022-10-13T17:33:51.976Z,8.57
2022-10-13T17:36:29.310Z,9.33
2022-10-13T17:39:06.423Z,8.30
2022-10-13T17:41:34.528Z,6.57
2022-10-13T17:44:02.736Z,8.77
2022-10-13T17:46:37.938Z,6.07
2022-10-13T17:49:10.859Z,7.23
2022-10-13T17:51:38.951Z,5.90
2022-10-13T17:54:11.435Z,8.23
2022-10-13T17:56:42.748Z,9.40
2022-10-13T17:59:10.484Z,9.27
2022-10-13T18:01:38.775Z,10.63
2022-10-13T18:04:12.492Z,8.60
2022-10-13T18:06:44.114Z,10.67
2022-10-13T18:09:19.266Z,11.40
2022-10-13T18:11:51.193Z,10.53
2022-10-13T18:14:22.889Z,8.27
2022-10-13T18:16:52.799Z,8.97
2022-10-13T18:19:26.987Z,10.20
2022-10-13T18:21:56.465Z,9.20
2022-10-13T18:24:25.478Z,7.00
2022-10-13T18:26:56.471Z,7.73
2022-10-13T18:29:24.783Z,6.33
2022-10-13T18:31:57.698Z,8.33
2022-10-13T18:34:25.676Z,8.73
2022-10-13T18:36:56.441Z,9.67
2022-10-13T18:39:29.721Z,8.37
2022-10-13T18:41:58.360Z,10.17
2022-10-13T18:44:26.546Z,8.67
2022-10-13T18:46:56.964Z,12.73
2022-10-13T18:49:34.143Z,8.80
2022-10-13T18:52:06.029Z,8.17
2022-10-13T18:54:34.464Z,7.60
2022-10-13T18:57:02.953Z,9.37
2022-10-13T18:59:32.309Z,7.73
2022-10-13T19:02:00.602Z,5.57
2022-10-13T19:04:28.541Z,9.20
2022-10-13T19:06:56.946Z,9.97
2022-10-13T19:09:26.824Z,7.67
2022-10-13T19:12:04.128Z,8.47
2022-10-13T19:14:32.041Z,12.37
2022-10-13T19:17:02.124Z,8.80
2022-10-13T19:19:30.382Z,7.10
2022-10-13T19:21:58.244Z,8.20
2022-10-13T19:24:25.397Z,16.57
2022-10-13T19:26:53.087Z,8.33
2022-10-13T19:29:25.623Z,8.37
2022-10-13T19:31:53.333Z,6.57
2022-10-13T19:34:20.545Z,9.27
2022-10-13T19:36:48.505Z,6.97
2022-10-13T19:39:23.446Z,13.10
2022-10-13T19:41:53.477Z,8.87
2022-10-13T19:44:21.731Z,6.57
2022-10-13T19:46:50.272Z,5.67
2022-10-13T19:49:20.835Z,10.20
2022-10-13T19:51:49.940Z,6.47
2022-10-13T19:54:19.531Z,6.13
2022-10-13T19:56:49.581Z,8.27
2022-10-13T19:59:20.038Z,7.77
2022-10-13T20:01:47.865Z,6.33
2022-10-13T20:04:20.648Z,6.40
2022-10-13T20:06:52.556Z,9.90
2022-10-13T20:09:20.690Z,10.97
2022-10-13T20:11:51.310Z,6.70
2022-10-13T20:14:19.654Z,5.63
2022-10-13T20:16:47.238Z,5.10
2022-10-13T20:19:19.287Z,5.70
2022-10-13T20:21:48.258Z,4.53
2022-10-13T20:24:15.974Z,9.27
2022-10-13T20:26:43.234Z,6.47
2022-10-13T20:29:10.650Z,7.97
2022-10-13T20:31:38.162Z,7.47
2022-10-13T20:34:05.843Z,7.17
2022-10-13T20:36:38.281Z,6.00
2022-10-13T20:39:06.287Z,5.60
2022-10-13T20:41:34.064Z,7.53
2022-10-13T20:44:02.272Z,6.17
2022-10-13T20:46:29.481Z,6.20
2022-10-13T20:49:13.494Z,6.07
2022-10-13T20:51:42.986Z,7.23
2022-10-13T20:54:12.788Z,5.00
2022-10-13T20:56:40.864Z,13.97
2022-10-13T20:59:12.518Z,6.40
2022-10-13T21:01:39.800Z,10.23
2022-10-13T21:04:07.380Z,9.23
2022-10-13T21:06:35.957Z,9.63
2022-10-13T21:09:05.772Z,4.80
2022-10-13T21:11:33.713Z,7.53
2022-10-13T21:14:02.948Z,7.27
2022-10-13T21:16:30.353Z,6.47
2022-10-13T21:18:59.115Z,10.10
2022-10-13T21:21:30.219Z,6.70
2022-10-13T21:24:02.412Z,10.57
2022-10-13T21:26:31.660Z,6.57
2022-10-13T21:29:00.139Z,9.03
2022-10-13T21:31:28.632Z,7.43
2022-10-13T21:33:56.929Z,7.13
2022-10-13T21:36:30.564Z,8.77
2022-10-13T21:39:04.771Z,8.83
2022-10-13T21:41:32.342Z,7.43
2022-10-13T21:43:59.772Z,10.20
2022-10-13T21:46:31.191Z,4.90
2022-10-13T21:49:03.213Z,8.63
2022-10-13T21:51:34.658Z,9.13
2022-10-13T21:54:11.671Z,6.80
2022-10-13T21:56:40.831Z,7.47
2022-10-13T21:59:10.285Z,5.90
2022-10-13T22:01:37.333Z,9.93
2022-10-13T22:04:06.304Z,10.00
2022-10-13T22:06:34.293Z,6.30
2022-10-13T22:09:04.142Z,5.70
2022-10-13T22:11:35.761Z,7.87
2022-10-13T22:14:04.349Z,10.57
2022-10-13T22:16:40.717Z,6.93
2022-10-13T22:19:08.199Z,6.87
2022-10-13T22:21:42.405Z,9.90
2022-10-13T22:24:14.048Z,5.87
2022-10-13T22:26:44.226Z,10.93
2022-10-13T22:29:16.092Z,9.63
2022-10-13T22:31:43.898Z,6.53
2022-10-13T22:34:13.069Z,11.70
2022-10-13T22:36:44.787Z,6.57
2022-10-13T22:39:13.665Z,4.93
2022-10-13T22:41:41.387Z,8.83
2022-10-13T22:44:09.088Z,7.00
2022-10-13T22:46:38.784Z,8.73
2022-10-13T22:49:07.699Z,11.33
2022-10-13T22:51:36.713Z,6.87
2022-10-13T22:54:04.858Z,7.30
2022-10-13T22:56:34.501Z,5.27
2022-10-13T22:59:07.074Z,7.93
2022-10-13T23:01:34.651Z,5.50
2022-10-13T23:04:02.274Z,4.40
2022-10-13T23:06:33.782Z,8.47
2022-10-13T23:09:04.511Z,7.60
2022-10-13T23:11:32.181Z,6.53
2022-10-13T23:13:59.510Z,6.00
2022-10-13T23:16:27.548Z,6.70
2022-10-13T23:18:55.073Z,4.37
2022-10-13T23:21:26.319Z,9.20
2022-10-13T23:24:04.087Z,6.30
2022-10-13T23:26:32.998Z,8.60
2022-10-13T23:29:00.772Z,5.30
2022-10-13T23:31:29.351Z,5.10
2022-10-13T23:33:57.634Z,5.30
2022-10-13T23:36:28.577Z,8.30
2022-10-13T23:39:07.579Z,11.03
2022-10-13T23:41:35.212Z,5.07
2022-10-13T23:44:03.088Z,6.43
2022-10-13T23:46:30.339Z,5.47
2022-10-13T23:48:57.471Z,4.83
2022-10-13T23:51:26.142Z,6.97
2022-10-13T23:53:55.819Z,6.30
2022-10-13T23:56:23.895Z,7.77
2022-10-13T23:58:51.023Z,4.63
